sensor_id;sensor_type;location;lat;lon;timestamp;P1;durP1;ratioP1;P2;durP2;ratioP2
48534;SDS011;34323;52.022;5.686;2023-02-28T00:00:21;4.35;;;2.25;;
48534;SDS011;34323;52.022;5.686;2023-02-28T00:02:47;4.47;;;2.30;;
48534;SDS011;34323;52.022;5.686;2023-02-28T00:05:14;7.72;;;2.55;;
48534;SDS011;34323;52.022;5.686;2023-02-28T00:07:42;6.13;;;2.67;;
48534;SDS011;34323;52.022;5.686;2023-02-28T00:10:09;5.82;;;2.92;;
48534;SDS011;34323;52.022;5.686;2023-02-28T00:12:37;3.30;;;2.25;;
48534;SDS011;34323;52.022;5.686;2023-02-28T00:15:06;6.50;;;2.67;;
48534;SDS011;34323;52.022;5.686;2023-02-28T00:17:33;4.10;;;2.47;;
48534;SDS011;34323;52.022;5.686;2023-02-28T00:19:59;2.72;;;1.83;;
48534;SDS011;34323;52.022;5.686;2023-02-28T00:22:37;4.57;;;2.03;;
48534;SDS011;34323;52.022;5.686;2023-02-28T00:25:04;6.05;;;2.60;;
48534;SDS011;34323;52.022;5.686;2023-02-28T00:27:32;3.80;;;2.85;;
48534;SDS011;34323;52.022;5.686;2023-02-28T00:29:58;4.55;;;2.28;;
48534;SDS011;34323;52.022;5.686;2023-02-28T00:32:24;6.43;;;2.80;;
48534;SDS011;34323;52.022;5.686;2023-02-28T00:34:49;4.75;;;2.30;;
48534;SDS011;34323;52.022;5.686;2023-02-28T00:37:15;3.53;;;2.28;;
48534;SDS011;34323;52.022;5.686;2023-02-28T00:39:41;5.72;;;2.40;;
48534;SDS011;34323;52.022;5.686;2023-02-28T00:42:06;4.63;;;2.00;;
48534;SDS011;34323;52.022;5.686;2023-02-28T00:44:32;3.63;;;2.47;;
48534;SDS011;34323;52.022;5.686;2023-02-28T00:46:58;5.82;;;2.25;;
48534;SDS011;34323;52.022;5.686;2023-02-28T00:49:25;3.25;;;2.00;;
48534;SDS011;34323;52.022;5.686;2023-02-28T00:51:52;6.93;;;2.25;;
48534;SDS011;34323;52.022;5.686;2023-02-28T00:54:18;4.53;;;2.40;;
48534;SDS011;34323;52.022;5.686;2023-02-28T00:56:44;3.90;;;2.40;;
48534;SDS011;34323;52.022;5.686;2023-02-28T00:59:13;2.85;;;1.92;;
48534;SDS011;34323;52.022;5.686;2023-02-28T01:01:40;4.97;;;2.13;;
48534;SDS011;34323;52.022;5.686;2023-02-28T01:04:06;5.53;;;2.13;;
48534;SDS011;34323;52.022;5.686;2023-02-28T01:06:32;5.78;;;2.50;;
48534;SDS011;34323;52.022;5.686;2023-02-28T01:08:58;4.43;;;2.67;;
48534;SDS011;34323;52.022;5.686;2023-02-28T01:11:24;7.45;;;2.67;;
48534;SDS011;34323;52.022;5.686;2023-02-28T01:13:49;5.72;;;3.00;;
48534;SDS011;34323;52.022;5.686;2023-02-28T01:16:15;6.93;;;2.92;;
48534;SDS011;34323;52.022;5.686;2023-02-28T01:18:41;6.18;;;2.88;;
48534;SDS011;34323;52.022;5.686;2023-02-28T01:21:11;8.40;;;3.35;;
48534;SDS011;34323;52.022;5.686;2023-02-28T01:23:40;6.63;;;2.40;;
48534;SDS011;34323;52.022;5.686;2023-02-28T01:26:06;3.95;;;2.85;;
48534;SDS011;34323;52.022;5.686;2023-02-28T01:28:34;4.93;;;2.83;;
48534;SDS011;34323;52.022;5.686;2023-02-28T01:30:59;6.90;;;2.78;;
48534;SDS011;34323;52.022;5.686;2023-02-28T01:33:25;4.88;;;2.58;;
48534;SDS011;34323;52.022;5.686;2023-02-28T01:35:57;4.80;;;2.95;;
48534;SDS011;34323;52.022;5.686;2023-02-28T01:38:23;9.02;;;2.97;;
48534;SDS011;34323;52.022;5.686;2023-02-28T01:40:49;4.97;;;2.65;;
48534;SDS011;34323;52.022;5.686;2023-02-28T01:43:19;5.07;;;2.88;;
48534;SDS011;34323;52.022;5.686;2023-02-28T01:45:47;7.18;;;3.47;;
48534;SDS011;34323;52.022;5.686;2023-02-28T01:48:13;4.95;;;3.10;;
48534;SDS011;34323;52.022;5.686;2023-02-28T01:50:39;6.97;;;3.10;;
48534;SDS011;34323;52.022;5.686;2023-02-28T01:53:10;4.50;;;3.03;;
48534;SDS011;34323;52.022;5.686;2023-02-28T01:55:40;4.57;;;2.95;;
48534;SDS011;34323;52.022;5.686;2023-02-28T01:58:09;7.25;;;3.05;;
48534;SDS011;34323;52.022;5.686;2023-02-28T02:00:35;8.75;;;3.42;;
48534;SDS011;34323;52.022;5.686;2023-02-28T02:03:11;6.85;;;4.40;;
48534;SDS011;34323;52.022;5.686;2023-02-28T02:05:39;8.60;;;3.70;;
48534;SDS011;34323;52.022;5.686;2023-02-28T02:08:07;5.00;;;2.72;;
48534;SDS011;34323;52.022;5.686;2023-02-28T02:10:39;9.18;;;3.55;;
48534;SDS011;34323;52.022;5.686;2023-02-28T02:13:11;5.20;;;3.47;;
48534;SDS011;34323;52.022;5.686;2023-02-28T02:18:37;7.25;;;2.80;;
48534;SDS011;34323;52.022;5.686;2023-02-28T02:24:11;5.55;;;3.13;;
48534;SDS011;34323;52.022;5.686;2023-02-28T02:27:08;6.93;;;3.28;;
48534;SDS011;34323;52.022;5.686;2023-02-28T02:35:38;5.10;;;2.88;;
48534;SDS011;34323;52.022;5.686;2023-02-28T02:43:52;5.22;;;2.80;;
48534;SDS011;34323;52.022;5.686;2023-02-28T02:46:25;3.30;;;2.42;;
48534;SDS011;34323;52.022;5.686;2023-02-28T02:48:54;6.03;;;3.05;;
48534;SDS011;34323;52.022;5.686;2023-02-28T02:51:22;6.70;;;2.70;;
48534;SDS011;34323;52.022;5.686;2023-02-28T02:53:50;5.78;;;2.83;;
48534;SDS011;34323;52.022;5.686;2023-02-28T02:56:20;7.15;;;3.17;;
48534;SDS011;34323;52.022;5.686;2023-02-28T02:58:57;5.80;;;3.20;;
48534;SDS011;34323;52.022;5.686;2023-02-28T03:01:27;3.45;;;2.05;;
48534;SDS011;34323;52.022;5.686;2023-02-28T03:04:06;14.50;;;3.45;;
48534;SDS011;34323;52.022;5.686;2023-02-28T03:06:34;6.20;;;3.15;;
48534;SDS011;34323;52.022;5.686;2023-02-28T03:09:00;6.03;;;3.47;;
48534;SDS011;34323;52.022;5.686;2023-02-28T03:11:26;9.23;;;4.15;;
48534;SDS011;34323;52.022;5.686;2023-02-28T03:13:54;7.50;;;3.63;;
48534;SDS011;34323;52.022;5.686;2023-02-28T03:22:36;8.95;;;3.25;;
48534;SDS011;34323;52.022;5.686;2023-02-28T03:25:31;7.65;;;3.45;;
48534;SDS011;34323;52.022;5.686;2023-02-28T03:28:07;5.20;;;3.30;;
48534;SDS011;34323;52.022;5.686;2023-02-28T03:36:05;6.93;;;2.92;;
48534;SDS011;34323;52.022;5.686;2023-02-28T03:38:43;8.95;;;3.63;;
48534;SDS011;34323;52.022;5.686;2023-02-28T03:41:17;7.13;;;3.63;;
48534;SDS011;34323;52.022;5.686;2023-02-28T03:43:55;7.97;;;3.75;;
48534;SDS011;34323;52.022;5.686;2023-02-28T03:46:24;6.50;;;3.55;;
48534;SDS011;34323;52.022;5.686;2023-02-28T03:48:55;9.50;;;3.78;;
48534;SDS011;34323;52.022;5.686;2023-02-28T03:51:37;6.18;;;3.55;;
48534;SDS011;34323;52.022;5.686;2023-02-28T03:54:06;4.53;;;3.03;;
48534;SDS011;34323;52.022;5.686;2023-02-28T03:56:38;8.93;;;3.10;;
48534;SDS011;34323;52.022;5.686;2023-02-28T03:59:19;6.60;;;3.05;;
48534;SDS011;34323;52.022;5.686;2023-02-28T04:02:14;5.07;;;3.33;;
48534;SDS011;34323;52.022;5.686;2023-02-28T04:04:40;5.82;;;3.13;;
48534;SDS011;34323;52.022;5.686;2023-02-28T04:07:13;5.97;;;3.47;;
48534;SDS011;34323;52.022;5.686;2023-02-28T04:09:39;5.95;;;3.53;;
48534;SDS011;34323;52.022;5.686;2023-02-28T04:12:05;7.22;;;3.58;;
48534;SDS011;34323;52.022;5.686;2023-02-28T04:14:30;6.00;;;3.28;;
48534;SDS011;34323;52.022;5.686;2023-02-28T04:16:56;5.22;;;3.53;;
48534;SDS011;34323;52.022;5.686;2023-02-28T04:19:22;7.90;;;3.58;;
48534;SDS011;34323;52.022;5.686;2023-02-28T04:21:48;5.10;;;3.67;;
48534;SDS011;34323;52.022;5.686;2023-02-28T04:24:19;4.68;;;2.90;;
48534;SDS011;34323;52.022;5.686;2023-02-28T04:26:47;8.43;;;3.83;;
48534;SDS011;34323;52.022;5.686;2023-02-28T04:29:19;4.30;;;2.50;;
48534;SDS011;34323;52.022;5.686;2023-02-28T04:34:13;6.22;;;3.20;;
48534;SDS011;34323;52.022;5.686;2023-02-28T04:36:39;5.53;;;3.15;;
48534;SDS011;34323;52.022;5.686;2023-02-28T04:39:04;7.88;;;3.38;;
48534;SDS011;34323;52.022;5.686;2023-02-28T04:41:30;4.45;;;3.00;;
48534;SDS011;34323;52.022;5.686;2023-02-28T04:43:56;5.00;;;2.95;;
48534;SDS011;34323;52.022;5.686;2023-02-28T04:46:21;6.13;;;2.75;;
48534;SDS011;34323;52.022;5.686;2023-02-28T04:48:48;4.88;;;2.63;;
48534;SDS011;34323;52.022;5.686;2023-02-28T04:51:14;8.18;;;3.53;;
48534;SDS011;34323;52.022;5.686;2023-02-28T04:53:41;5.72;;;3.00;;
48534;SDS011;34323;52.022;5.686;2023-02-28T04:56:08;5.50;;;2.53;;
48534;SDS011;34323;52.022;5.686;2023-02-28T04:58:37;4.72;;;2.55;;
48534;SDS011;34323;52.022;5.686;2023-02-28T05:01:07;4.70;;;2.50;;
48534;SDS011;34323;52.022;5.686;2023-02-28T05:03:44;4.80;;;2.30;;
48534;SDS011;34323;52.022;5.686;2023-02-28T05:06:11;3.30;;;2.50;;
48534;SDS011;34323;52.022;5.686;2023-02-28T05:08:37;5.78;;;2.83;;
48534;SDS011;34323;52.022;5.686;2023-02-28T05:11:03;4.63;;;2.47;;
48534;SDS011;34323;52.022;5.686;2023-02-28T05:13:31;3.50;;;2.15;;
48534;SDS011;34323;52.022;5.686;2023-02-28T05:15:56;8.35;;;2.30;;
48534;SDS011;34323;52.022;5.686;2023-02-28T05:18:22;4.88;;;2.20;;
48534;SDS011;34323;52.022;5.686;2023-02-28T05:20:47;4.35;;;2.40;;
48534;SDS011;34323;52.022;5.686;2023-02-28T05:23:13;3.88;;;2.42;;
48534;SDS011;34323;52.022;5.686;2023-02-28T05:25:40;6.43;;;2.90;;
48534;SDS011;34323;52.022;5.686;2023-02-28T05:28:06;6.10;;;2.70;;
48534;SDS011;34323;52.022;5.686;2023-02-28T05:30:32;6.82;;;2.70;;
48534;SDS011;34323;52.022;5.686;2023-02-28T05:32:58;8.52;;;2.83;;
48534;SDS011;34323;52.022;5.686;2023-02-28T05:35:24;5.07;;;2.58;;
48534;SDS011;34323;52.022;5.686;2023-02-28T05:37:50;4.05;;;2.38;;
48534;SDS011;34323;52.022;5.686;2023-02-28T05:40:16;6.22;;;3.00;;
48534;SDS011;34323;52.022;5.686;2023-02-28T05:42:42;6.47;;;2.90;;
48534;SDS011;34323;52.022;5.686;2023-02-28T05:45:08;4.78;;;2.72;;
48534;SDS011;34323;52.022;5.686;2023-02-28T05:47:34;6.97;;;3.13;;
48534;SDS011;34323;52.022;5.686;2023-02-28T05:50:00;4.45;;;2.47;;
48534;SDS011;34323;52.022;5.686;2023-02-28T05:52:26;5.68;;;2.60;;
48534;SDS011;34323;52.022;5.686;2023-02-28T05:54:52;3.85;;;2.42;;
48534;SDS011;34323;52.022;5.686;2023-02-28T05:57:18;7.10;;;2.90;;
48534;SDS011;34323;52.022;5.686;2023-02-28T05:59:44;5.30;;;2.72;;
48534;SDS011;34323;52.022;5.686;2023-02-28T06:02:13;4.97;;;2.75;;
48534;SDS011;34323;52.022;5.686;2023-02-28T06:04:40;7.28;;;2.67;;
48534;SDS011;34323;52.022;5.686;2023-02-28T06:07:06;7.18;;;3.08;;
48534;SDS011;34323;52.022;5.686;2023-02-28T06:09:32;5.15;;;2.90;;
48534;SDS011;34323;52.022;5.686;2023-02-28T06:11:58;6.30;;;3.17;;
48534;SDS011;34323;52.022;5.686;2023-02-28T06:14:25;5.82;;;3.03;;
48534;SDS011;34323;52.022;5.686;2023-02-28T06:16:50;4.85;;;2.67;;
48534;SDS011;34323;52.022;5.686;2023-02-28T06:19:16;5.88;;;2.88;;
48534;SDS011;34323;52.022;5.686;2023-02-28T06:21:42;7.55;;;2.88;;
48534;SDS011;34323;52.022;5.686;2023-02-28T06:24:08;4.07;;;2.78;;
48534;SDS011;34323;52.022;5.686;2023-02-28T06:26:34;4.68;;;2.72;;
48534;SDS011;34323;52.022;5.686;2023-02-28T06:29:00;3.30;;;2.28;;
48534;SDS011;34323;52.022;5.686;2023-02-28T06:31:25;4.30;;;2.53;;
48534;SDS011;34323;52.022;5.686;2023-02-28T06:33:53;5.32;;;2.33;;
48534;SDS011;34323;52.022;5.686;2023-02-28T06:36:20;3.83;;;2.30;;
48534;SDS011;34323;52.022;5.686;2023-02-28T06:38:46;4.95;;;2.17;;
48534;SDS011;34323;52.022;5.686;2023-02-28T06:41:16;4.45;;;1.95;;
48534;SDS011;34323;52.022;5.686;2023-02-28T06:43:42;3.90;;;2.40;;
48534;SDS011;34323;52.022;5.686;2023-02-28T06:46:08;5.18;;;2.65;;
48534;SDS011;34323;52.022;5.686;2023-02-28T06:48:37;4.32;;;2.38;;
48534;SDS011;34323;52.022;5.686;2023-02-28T06:51:03;6.22;;;2.58;;
48534;SDS011;34323;52.022;5.686;2023-02-28T06:53:31;6.85;;;3.13;;
48534;SDS011;34323;52.022;5.686;2023-02-28T06:55:57;8.07;;;3.17;;
48534;SDS011;34323;52.022;5.686;2023-02-28T06:58:22;6.03;;;2.60;;
48534;SDS011;34323;52.022;5.686;2023-02-28T07:00:50;6.03;;;3.17;;
48534;SDS011;34323;52.022;5.686;2023-02-28T07:03:16;4.47;;;2.90;;
48534;SDS011;34323;52.022;5.686;2023-02-28T07:05:43;4.60;;;3.03;;
48534;SDS011;34323;52.022;5.686;2023-02-28T07:08:08;9.48;;;4.93;;
48534;SDS011;34323;52.022;5.686;2023-02-28T07:10:34;6.78;;;3.95;;
48534;SDS011;34323;52.022;5.686;2023-02-28T07:13:03;6.13;;;3.55;;
48534;SDS011;34323;52.022;5.686;2023-02-28T07:15:29;6.40;;;3.20;;
48534;SDS011;34323;52.022;5.686;2023-02-28T07:17:55;6.32;;;3.33;;
48534;SDS011;34323;52.022;5.686;2023-02-28T07:20:21;4.88;;;2.92;;
48534;SDS011;34323;52.022;5.686;2023-02-28T07:22:48;5.78;;;3.20;;
48534;SDS011;34323;52.022;5.686;2023-02-28T07:25:20;9.60;;;2.67;;
48534;SDS011;34323;52.022;5.686;2023-02-28T07:27:46;5.07;;;2.83;;
48534;SDS011;34323;52.022;5.686;2023-02-28T07:30:12;5.82;;;3.00;;
48534;SDS011;34323;52.022;5.686;2023-02-28T07:32:38;5.03;;;2.75;;
48534;SDS011;34323;52.022;5.686;2023-02-28T07:35:03;7.28;;;3.47;;
48534;SDS011;34323;52.022;5.686;2023-02-28T07:37:29;4.22;;;2.45;;
48534;SDS011;34323;52.022;5.686;2023-02-28T07:40:04;4.43;;;2.88;;
48534;SDS011;34323;52.022;5.686;2023-02-28T07:42:38;4.15;;;2.22;;
48534;SDS011;34323;52.022;5.686;2023-02-28T07:45:05;6.75;;;2.67;;
48534;SDS011;34323;52.022;5.686;2023-02-28T07:47:31;5.85;;;2.95;;
48534;SDS011;34323;52.022;5.686;2023-02-28T07:49:57;5.32;;;2.50;;
48534;SDS011;34323;52.022;5.686;2023-02-28T07:52:23;3.67;;;2.10;;
48534;SDS011;34323;52.022;5.686;2023-02-28T07:54:52;3.15;;;2.15;;
48534;SDS011;34323;52.022;5.686;2023-02-28T07:57:18;4.75;;;2.08;;
48534;SDS011;34323;52.022;5.686;2023-02-28T07:59:43;3.97;;;2.03;;
48534;SDS011;34323;52.022;5.686;2023-02-28T08:02:13;6.28;;;2.45;;
48534;SDS011;34323;52.022;5.686;2023-02-28T08:04:40;4.82;;;2.50;;
48534;SDS011;34323;52.022;5.686;2023-02-28T08:07:05;4.93;;;2.58;;
48534;SDS011;34323;52.022;5.686;2023-02-28T08:09:31;6.28;;;2.28;;
48534;SDS011;34323;52.022;5.686;2023-02-28T08:11:57;8.25;;;2.42;;
48534;SDS011;34323;52.022;5.686;2023-02-28T08:14:23;6.75;;;2.20;;
48534;SDS011;34323;52.022;5.686;2023-02-28T08:16:48;4.35;;;2.47;;
48534;SDS011;34323;52.022;5.686;2023-02-28T08:19:14;3.92;;;1.80;;
48534;SDS011;34323;52.022;5.686;2023-02-28T08:21:39;4.22;;;2.08;;
48534;SDS011;34323;52.022;5.686;2023-02-28T08:24:05;3.83;;;2.13;;
48534;SDS011;34323;52.022;5.686;2023-02-28T08:26:31;3.60;;;1.45;;
48534;SDS011;34323;52.022;5.686;2023-02-28T08:28:57;2.38;;;1.23;;
48534;SDS011;34323;52.022;5.686;2023-02-28T08:31:23;2.47;;;1.40;;
48534;SDS011;34323;52.022;5.686;2023-02-28T08:33:48;1.88;;;1.23;;
48534;SDS011;34323;52.022;5.686;2023-02-28T08:36:16;3.38;;;1.58;;
48534;SDS011;34323;52.022;5.686;2023-02-28T08:38:42;3.60;;;1.58;;
48534;SDS011;34323;52.022;5.686;2023-02-28T08:41:10;4.18;;;1.10;;
48534;SDS011;34323;52.022;5.686;2023-02-28T08:43:37;2.10;;;1.05;;
48534;SDS011;34323;52.022;5.686;2023-02-28T08:46:03;4.30;;;1.60;;
48534;SDS011;34323;52.022;5.686;2023-02-28T08:48:30;2.08;;;1.23;;
48534;SDS011;34323;52.022;5.686;2023-02-28T08:51:01;2.88;;;1.40;;
48534;SDS011;34323;52.022;5.686;2023-02-28T08:53:29;2.00;;;1.10;;
48534;SDS011;34323;52.022;5.686;2023-02-28T08:55:55;2.78;;;1.58;;
48534;SDS011;34323;52.022;5.686;2023-02-28T08:58:32;10.40;;;1.17;;
48534;SDS011;34323;52.022;5.686;2023-02-28T09:00:59;1.98;;;1.33;;
48534;SDS011;34323;52.022;5.686;2023-02-28T09:03:24;3.60;;;1.33;;
48534;SDS011;34323;52.022;5.686;2023-02-28T09:05:53;4.55;;;1.60;;
48534;SDS011;34323;52.022;5.686;2023-02-28T09:08:23;2.28;;;1.20;;
48534;SDS011;34323;52.022;5.686;2023-02-28T09:10:50;2.92;;;1.50;;
48534;SDS011;34323;52.022;5.686;2023-02-28T09:13:16;2.80;;;1.50;;
48534;SDS011;34323;52.022;5.686;2023-02-28T09:15:42;4.28;;;1.63;;
48534;SDS011;34323;52.022;5.686;2023-02-28T09:18:07;2.03;;;1.17;;
48534;SDS011;34323;52.022;5.686;2023-02-28T09:20:33;1.92;;;1.13;;
48534;SDS011;34323;52.022;5.686;2023-02-28T09:22:58;1.98;;;0.95;;
48534;SDS011;34323;52.022;5.686;2023-02-28T09:25:24;2.45;;;1.45;;
48534;SDS011;34323;52.022;5.686;2023-02-28T09:27:49;2.33;;;1.27;;
48534;SDS011;34323;52.022;5.686;2023-02-28T09:30:15;1.30;;;1.20;;
48534;SDS011;34323;52.022;5.686;2023-02-28T09:32:41;2.90;;;1.08;;
48534;SDS011;34323;52.022;5.686;2023-02-28T09:35:07;1.85;;;1.20;;
48534;SDS011;34323;52.022;5.686;2023-02-28T09:37:38;2.00;;;1.08;;
48534;SDS011;34323;52.022;5.686;2023-02-28T09:40:04;1.65;;;1.10;;
48534;SDS011;34323;52.022;5.686;2023-02-28T09:42:31;5.00;;;1.02;;
48534;SDS011;34323;52.022;5.686;2023-02-28T09:44:59;1.75;;;1.33;;
48534;SDS011;34323;52.022;5.686;2023-02-28T09:47:27;2.53;;;1.15;;
48534;SDS011;34323;52.022;5.686;2023-02-28T09:50:09;2.45;;;1.30;;
48534;SDS011;34323;52.022;5.686;2023-02-28T09:52:45;1.27;;;1.00;;
48534;SDS011;34323;52.022;5.686;2023-02-28T09:57:40;1.67;;;1.10;;
48534;SDS011;34323;52.022;5.686;2023-02-28T10:00:14;2.05;;;1.13;;
48534;SDS011;34323;52.022;5.686;2023-02-28T10:11:00;2.03;;;1.20;;
48534;SDS011;34323;52.022;5.686;2023-02-28T10:16:28;1.77;;;1.05;;
48534;SDS011;34323;52.022;5.686;2023-02-28T10:22:17;1.73;;;0.80;;
48534;SDS011;34323;52.022;5.686;2023-02-28T10:24:54;2.25;;;1.10;;
48534;SDS011;34323;52.022;5.686;2023-02-28T10:27:26;2.50;;;1.23;;
48534;SDS011;34323;52.022;5.686;2023-02-28T10:29:55;2.22;;;1.15;;
48534;SDS011;34323;52.022;5.686;2023-02-28T10:32:31;2.45;;;1.08;;
48534;SDS011;34323;52.022;5.686;2023-02-28T10:35:18;1.70;;;1.20;;
48534;SDS011;34323;52.022;5.686;2023-02-28T10:37:53;2.63;;;1.10;;
48534;SDS011;34323;52.022;5.686;2023-02-28T10:42:59;1.65;;;1.25;;
48534;SDS011;34323;52.022;5.686;2023-02-28T10:45:37;2.70;;;1.00;;
48534;SDS011;34323;52.022;5.686;2023-02-28T10:50:52;2.00;;;1.13;;
48534;SDS011;34323;52.022;5.686;2023-02-28T10:58:25;1.70;;;1.02;;
48534;SDS011;34323;52.022;5.686;2023-02-28T11:00:53;1.90;;;1.30;;
48534;SDS011;34323;52.022;5.686;2023-02-28T11:03:23;1.25;;;1.00;;
48534;SDS011;34323;52.022;5.686;2023-02-28T11:05:50;1.73;;;1.10;;
48534;SDS011;34323;52.022;5.686;2023-02-28T11:08:17;3.00;;;1.17;;
48534;SDS011;34323;52.022;5.686;2023-02-28T11:10:44;3.58;;;1.40;;
48534;SDS011;34323;52.022;5.686;2023-02-28T11:13:19;3.33;;;1.42;;
48534;SDS011;34323;52.022;5.686;2023-02-28T11:15:54;1.35;;;1.08;;
48534;SDS011;34323;52.022;5.686;2023-02-28T11:21:19;3.20;;;1.23;;
48534;SDS011;34323;52.022;5.686;2023-02-28T11:23:50;2.90;;;1.20;;
48534;SDS011;34323;52.022;5.686;2023-02-28T11:26:34;3.33;;;1.00;;
48534;SDS011;34323;52.022;5.686;2023-02-28T11:29:20;2.25;;;1.25;;
48534;SDS011;34323;52.022;5.686;2023-02-28T11:35:01;2.17;;;1.23;;
48534;SDS011;34323;52.022;5.686;2023-02-28T11:37:29;3.70;;;1.35;;
48534;SDS011;34323;52.022;5.686;2023-02-28T11:39:57;2.72;;;1.02;;
48534;SDS011;34323;52.022;5.686;2023-02-28T11:48:22;2.10;;;0.80;;
48534;SDS011;34323;52.022;5.686;2023-02-28T11:50:57;1.40;;;1.02;;
48534;SDS011;34323;52.022;5.686;2023-02-28T11:53:35;1.67;;;0.90;;
48534;SDS011;34323;52.022;5.686;2023-02-28T11:58:45;1.38;;;0.90;;
48534;SDS011;34323;52.022;5.686;2023-02-28T12:06:43;2.55;;;1.30;;
48534;SDS011;34323;52.022;5.686;2023-02-28T12:09:20;2.13;;;1.05;;
48534;SDS011;34323;52.022;5.686;2023-02-28T12:12:23;4.63;;;1.30;;
48534;SDS011;34323;52.022;5.686;2023-02-28T12:17:45;2.47;;;1.30;;
48534;SDS011;34323;52.022;5.686;2023-02-28T12:23:11;3.38;;;1.25;;
48534;SDS011;34323;52.022;5.686;2023-02-28T12:26:00;2.00;;;1.15;;
48534;SDS011;34323;52.022;5.686;2023-02-28T12:28:33;2.35;;;1.27;;
48534;SDS011;34323;52.022;5.686;2023-02-28T12:31:06;2.85;;;1.33;;
48534;SDS011;34323;52.022;5.686;2023-02-28T12:33:40;2.22;;;1.10;;
48534;SDS011;34323;52.022;5.686;2023-02-28T12:36:14;1.40;;;1.10;;
48534;SDS011;34323;52.022;5.686;2023-02-28T12:39:00;2.85;;;1.40;;
48534;SDS011;34323;52.022;5.686;2023-02-28T12:44:18;3.25;;;1.25;;
48534;SDS011;34323;52.022;5.686;2023-02-28T12:46:52;2.33;;;1.42;;
48534;SDS011;34323;52.022;5.686;2023-02-28T12:49:23;1.90;;;1.30;;
48534;SDS011;34323;52.022;5.686;2023-02-28T12:51:57;2.13;;;1.20;;
48534;SDS011;34323;52.022;5.686;2023-02-28T12:54:29;1.35;;;1.08;;
48534;SDS011;34323;52.022;5.686;2023-02-28T13:05:27;2.72;;;1.35;;
48534;SDS011;34323;52.022;5.686;2023-02-28T13:08:19;2.17;;;1.35;;
48534;SDS011;34323;52.022;5.686;2023-02-28T13:11:33;3.25;;;1.50;;
48534;SDS011;34323;52.022;5.686;2023-02-28T13:14:05;1.95;;;1.23;;
48534;SDS011;34323;52.022;5.686;2023-02-28T13:16:56;2.17;;;1.42;;
48534;SDS011;34323;52.022;5.686;2023-02-28T13:19:32;2.10;;;1.33;;
48534;SDS011;34323;52.022;5.686;2023-02-28T13:22:00;3.00;;;1.60;;
48534;SDS011;34323;52.022;5.686;2023-02-28T13:24:38;2.33;;;1.33;;
48534;SDS011;34323;52.022;5.686;2023-02-28T13:29:35;1.90;;;1.30;;
48534;SDS011;34323;52.022;5.686;2023-02-28T13:34:31;3.15;;;1.30;;
48534;SDS011;34323;52.022;5.686;2023-02-28T13:42:48;2.85;;;1.35;;
48534;SDS011;34323;52.022;5.686;2023-02-28T13:47:51;3.80;;;1.88;;
48534;SDS011;34323;52.022;5.686;2023-02-28T13:55:49;1.95;;;1.17;;
48534;SDS011;34323;52.022;5.686;2023-02-28T13:58:41;1.65;;;1.20;;
48534;SDS011;34323;52.022;5.686;2023-02-28T14:05:01;2.58;;;1.35;;
48534;SDS011;34323;52.022;5.686;2023-02-28T14:07:38;3.25;;;1.52;;
48534;SDS011;34323;52.022;5.686;2023-02-28T14:10:30;1.80;;;1.20;;
48534;SDS011;34323;52.022;5.686;2023-02-28T14:13:42;1.67;;;1.15;;
48534;SDS011;34323;52.022;5.686;2023-02-28T14:15:59;1.30;;;1.10;;
48534;SDS011;34323;52.022;5.686;2023-02-28T14:18:31;1.83;;;1.10;;
48534;SDS011;34323;52.022;5.686;2023-02-28T14:32:43;1.70;;;1.42;;
48534;SDS011;34323;52.022;5.686;2023-02-28T14:38:32;1.60;;;1.27;;
48534;SDS011;34323;52.022;5.686;2023-02-28T14:41:03;2.08;;;1.20;;
48534;SDS011;34323;52.022;5.686;2023-02-28T14:43:31;2.45;;;1.60;;
48534;SDS011;34323;52.022;5.686;2023-02-28T14:46:01;2.75;;;1.63;;
48534;SDS011;34323;52.022;5.686;2023-02-28T14:48:29;2.80;;;1.27;;
48534;SDS011;34323;52.022;5.686;2023-02-28T14:50:58;1.83;;;1.17;;
48534;SDS011;34323;52.022;5.686;2023-02-28T14:53:29;2.03;;;1.27;;
48534;SDS011;34323;52.022;5.686;2023-02-28T14:56:00;1.25;;;1.10;;
48534;SDS011;34323;52.022;5.686;2023-02-28T14:58:26;2.28;;;1.30;;
48534;SDS011;34323;52.022;5.686;2023-02-28T15:01:01;2.13;;;1.58;;
48534;SDS011;34323;52.022;5.686;2023-02-28T15:03:35;1.98;;;1.45;;
48534;SDS011;34323;52.022;5.686;2023-02-28T15:06:12;1.52;;;1.20;;
48534;SDS011;34323;52.022;5.686;2023-02-28T15:08:43;1.92;;;1.17;;
48534;SDS011;34323;52.022;5.686;2023-02-28T15:11:16;4.43;;;1.60;;
48534;SDS011;34323;52.022;5.686;2023-02-28T15:13:53;2.53;;;1.55;;
48534;SDS011;34323;52.022;5.686;2023-02-28T15:18:58;3.28;;;1.33;;
48534;SDS011;34323;52.022;5.686;2023-02-28T15:26:37;6.40;;;1.63;;
48534;SDS011;34323;52.022;5.686;2023-02-28T15:29:11;2.58;;;1.55;;
48534;SDS011;34323;52.022;5.686;2023-02-28T15:31:51;2.60;;;1.40;;
48534;SDS011;34323;52.022;5.686;2023-02-28T15:40:07;3.30;;;1.60;;
48534;SDS011;34323;52.022;5.686;2023-02-28T15:42:37;1.40;;;1.00;;
48534;SDS011;34323;52.022;5.686;2023-02-28T15:45:03;1.95;;;1.45;;
48534;SDS011;34323;52.022;5.686;2023-02-28T15:47:29;1.75;;;1.40;;
48534;SDS011;34323;52.022;5.686;2023-02-28T15:50:00;2.03;;;1.30;;
48534;SDS011;34323;52.022;5.686;2023-02-28T15:52:29;2.40;;;1.33;;
48534;SDS011;34323;52.022;5.686;2023-02-28T15:55:18;2.20;;;1.38;;
48534;SDS011;34323;52.022;5.686;2023-02-28T15:57:46;3.38;;;1.25;;
48534;SDS011;34323;52.022;5.686;2023-02-28T16:00:18;2.35;;;1.33;;
48534;SDS011;34323;52.022;5.686;2023-02-28T16:02:45;2.53;;;1.20;;
48534;SDS011;34323;52.022;5.686;2023-02-28T16:05:19;1.88;;;1.35;;
48534;SDS011;34323;52.022;5.686;2023-02-28T16:08:00;4.68;;;1.45;;
48534;SDS011;34323;52.022;5.686;2023-02-28T16:10:36;2.45;;;1.38;;
48534;SDS011;34323;52.022;5.686;2023-02-28T16:13:02;2.47;;;1.63;;
48534;SDS011;34323;52.022;5.686;2023-02-28T16:15:28;4.45;;;1.38;;
48534;SDS011;34323;52.022;5.686;2023-02-28T16:17:57;6.35;;;1.60;;
48534;SDS011;34323;52.022;5.686;2023-02-28T16:20:27;2.20;;;1.45;;
48534;SDS011;34323;52.022;5.686;2023-02-28T16:22:54;4.32;;;1.92;;
48534;SDS011;34323;52.022;5.686;2023-02-28T16:25:26;1.92;;;1.20;;
48534;SDS011;34323;52.022;5.686;2023-02-28T16:27:58;2.33;;;1.38;;
48534;SDS011;34323;52.022;5.686;2023-02-28T16:30:26;1.88;;;1.25;;
48534;SDS011;34323;52.022;5.686;2023-02-28T16:32:56;5.18;;;1.48;;
48534;SDS011;34323;52.022;5.686;2023-02-28T16:35:22;2.72;;;1.35;;
48534;SDS011;34323;52.022;5.686;2023-02-28T16:37:47;3.55;;;1.52;;
48534;SDS011;34323;52.022;5.686;2023-02-28T16:40:16;2.83;;;1.50;;
48534;SDS011;34323;52.022;5.686;2023-02-28T16:42:51;2.42;;;1.65;;
48534;SDS011;34323;52.022;5.686;2023-02-28T16:45:21;3.65;;;1.83;;
48534;SDS011;34323;52.022;5.686;2023-02-28T16:47:49;4.03;;;1.23;;
48534;SDS011;34323;52.022;5.686;2023-02-28T16:50:22;2.30;;;1.50;;
48534;SDS011;34323;52.022;5.686;2023-02-28T16:52:49;1.83;;;1.17;;
48534;SDS011;34323;52.022;5.686;2023-02-28T16:55:17;1.65;;;1.13;;
48534;SDS011;34323;52.022;5.686;2023-02-28T16:57:43;2.92;;;1.45;;
48534;SDS011;34323;52.022;5.686;2023-02-28T17:00:12;2.30;;;1.45;;
48534;SDS011;34323;52.022;5.686;2023-02-28T17:02:38;5.13;;;1.40;;
48534;SDS011;34323;52.022;5.686;2023-02-28T17:05:05;2.63;;;1.42;;
48534;SDS011;34323;52.022;5.686;2023-02-28T17:07:31;2.47;;;1.58;;
48534;SDS011;34323;52.022;5.686;2023-02-28T17:09:57;2.83;;;1.50;;
48534;SDS011;34323;52.022;5.686;2023-02-28T17:12:24;2.03;;;1.45;;
48534;SDS011;34323;52.022;5.686;2023-02-28T17:14:49;6.30;;;1.58;;
48534;SDS011;34323;52.022;5.686;2023-02-28T17:17:15;4.40;;;1.55;;
48534;SDS011;34323;52.022;5.686;2023-02-28T17:19:43;3.97;;;1.65;;
48534;SDS011;34323;52.022;5.686;2023-02-28T17:22:09;2.58;;;1.08;;
48534;SDS011;34323;52.022;5.686;2023-02-28T17:24:35;2.50;;;1.67;;
48534;SDS011;34323;52.022;5.686;2023-02-28T17:27:00;3.13;;;1.85;;
48534;SDS011;34323;52.022;5.686;2023-02-28T17:29:26;2.60;;;1.40;;